<?xml version="1.0" encoding="UTF-8" standalone="no" ?>
<gpx xmlns="http://www.topografix.com/GPX/1/1" xmlns:xsi="http://www.w3.org/2001/XMLSchema-instance" xsi:schemaLocation="http://www.topografix.com/GPX/1/1 http://www.topografix.com/GPX/1/1/gpx.xsd" version="1.1" creator="VisuGPX - https://www.visugpx.com">
  <metadata>
    <name>Chemin Jéricho 8.5 Kms</name>
  </metadata>
  <wpt lat="47.86715" lon="0.56593">
    <ele>151</ele>
    <name><![CDATA[Départ place St Anne]]></name>
  </wpt>
  <wpt lat="47.87332" lon="0.58965">
    <ele>107.2</ele>
    <name><![CDATA[Parcour 8.5 Kms]]></name>
  </wpt>
  <wpt lat="47.86878" lon="0.57793">
    <ele>156.5</ele>
    <name><![CDATA[Parcour 8.5 Kms]]></name>
  </wpt>
  <wpt lat="47.86715" lon="0.566">
    <ele>150.9</ele>
    <name><![CDATA[Arrivée place St Anne]]></name>
  </wpt>
  <trk>
    <name><![CDATA[Chemin Jéricho 8.5 Kms]]></name>
    <extensions>
      <line xmlns="http://www.topografix.com/GPX/gpx_style/0/2">
        <color>ff0000</color>
        <width>4</width>
        <dasharray>8</dasharray>
      </line>
    </extensions>
    <trkseg>
      <trkpt lat="47.86715" lon="0.56593">
        <ele>151</ele>
        <time>2021-09-17T16:02:54+02:00</time>
      </trkpt>
      <trkpt lat="47.86712" lon="0.56578">
        <ele>151</ele>
        <time>2021-09-17T16:02:59+02:00</time>
      </trkpt>
      <trkpt lat="47.86703" lon="0.5657">
        <ele>152</ele>
        <time>2021-09-17T16:03:04+02:00</time>
      </trkpt>
      <trkpt lat="47.8666" lon="0.56495">
        <ele>152</ele>
        <time>2021-09-17T16:03:09+02:00</time>
      </trkpt>
      <trkpt lat="47.86603" lon="0.56414">
        <ele>154</ele>
        <time>2021-09-17T16:03:14+02:00</time>
      </trkpt>
      <trkpt lat="47.86573" lon="0.56369">
        <ele>154</ele>
        <time>2021-09-17T16:03:19+02:00</time>
      </trkpt>
      <trkpt lat="47.86552" lon="0.56327">
        <ele>153</ele>
        <time>2021-09-17T16:03:24+02:00</time>
      </trkpt>
      <trkpt lat="47.8653" lon="0.56121">
        <ele>155</ele>
        <time>2021-09-17T16:03:29+02:00</time>
      </trkpt>
      <trkpt lat="47.86503" lon="0.55915">
        <ele>154</ele>
        <time>2021-09-17T16:03:34+02:00</time>
      </trkpt>
      <trkpt lat="47.86493" lon="0.5587">
        <ele>155</ele>
        <time>2021-09-17T16:03:39+02:00</time>
      </trkpt>
      <trkpt lat="47.8648" lon="0.55834">
        <ele>155</ele>
        <time>2021-09-17T16:03:44+02:00</time>
      </trkpt>
      <trkpt lat="47.86492" lon="0.55818">
        <ele>156</ele>
        <time>2021-09-17T16:03:49+02:00</time>
      </trkpt>
      <trkpt lat="47.86496" lon="0.55744">
        <ele>156</ele>
        <time>2021-09-17T16:03:54+02:00</time>
      </trkpt>
      <trkpt lat="47.86665" lon="0.55757">
        <ele>155</ele>
        <time>2021-09-17T16:03:59+02:00</time>
      </trkpt>
      <trkpt lat="47.86942" lon="0.55643">
        <ele>154</ele>
        <time>2021-09-17T16:04:04+02:00</time>
      </trkpt>
      <trkpt lat="47.86999" lon="0.5562">
        <ele>155</ele>
        <time>2021-09-17T16:04:09+02:00</time>
      </trkpt>
      <trkpt lat="47.87061" lon="0.55581">
        <ele>157</ele>
        <time>2021-09-17T16:04:14+02:00</time>
      </trkpt>
      <trkpt lat="47.87155" lon="0.55538">
        <ele>159</ele>
        <time>2021-09-17T16:04:19+02:00</time>
      </trkpt>
      <trkpt lat="47.87185" lon="0.55531">
        <ele>159</ele>
        <time>2021-09-17T16:04:24+02:00</time>
      </trkpt>
      <trkpt lat="47.87205" lon="0.55527">
        <ele>159</ele>
        <time>2021-09-17T16:04:29+02:00</time>
      </trkpt>
      <trkpt lat="47.87222" lon="0.55536">
        <ele>159</ele>
        <time>2021-09-17T16:04:34+02:00</time>
      </trkpt>
      <trkpt lat="47.8724" lon="0.55575">
        <ele>160</ele>
        <time>2021-09-17T16:04:39+02:00</time>
      </trkpt>
      <trkpt lat="47.87322" lon="0.55598">
        <ele>161</ele>
        <time>2021-09-17T16:04:44+02:00</time>
      </trkpt>
      <trkpt lat="47.87482" lon="0.55659">
        <ele>160</ele>
        <time>2021-09-17T16:04:49+02:00</time>
      </trkpt>
      <trkpt lat="47.87598" lon="0.5568">
        <ele>154</ele>
        <time>2021-09-17T16:04:54+02:00</time>
      </trkpt>
      <trkpt lat="47.87638" lon="0.55679">
        <ele>153</ele>
        <time>2021-09-17T16:04:59+02:00</time>
      </trkpt>
      <trkpt lat="47.87681" lon="0.55678">
        <ele>151</ele>
        <time>2021-09-17T16:05:04+02:00</time>
      </trkpt>
      <trkpt lat="47.87731" lon="0.55666">
        <ele>149</ele>
        <time>2021-09-17T16:05:09+02:00</time>
      </trkpt>
      <trkpt lat="47.87803" lon="0.55666">
        <ele>145</ele>
        <time>2021-09-17T16:05:14+02:00</time>
      </trkpt>
      <trkpt lat="47.87923" lon="0.55558">
        <ele>151</ele>
        <time>2021-09-17T16:05:19+02:00</time>
      </trkpt>
      <trkpt lat="47.8794" lon="0.55548">
        <ele>151</ele>
        <time>2021-09-17T16:05:24+02:00</time>
      </trkpt>
      <trkpt lat="47.87962" lon="0.55547">
        <ele>152</ele>
        <time>2021-09-17T16:05:29+02:00</time>
      </trkpt>
      <trkpt lat="47.87988" lon="0.55552">
        <ele>153</ele>
        <time>2021-09-17T16:05:34+02:00</time>
      </trkpt>
      <trkpt lat="47.88006" lon="0.55566">
        <ele>154</ele>
        <time>2021-09-17T16:05:39+02:00</time>
      </trkpt>
      <trkpt lat="47.88059" lon="0.55612">
        <ele>155</ele>
        <time>2021-09-17T16:05:44+02:00</time>
      </trkpt>
      <trkpt lat="47.881" lon="0.5567">
        <ele>154</ele>
        <time>2021-09-17T16:05:49+02:00</time>
      </trkpt>
      <trkpt lat="47.88147" lon="0.55717">
        <ele>155</ele>
        <time>2021-09-17T16:05:54+02:00</time>
      </trkpt>
      <trkpt lat="47.88273" lon="0.55846">
        <ele>153</ele>
        <time>2021-09-17T16:05:59+02:00</time>
      </trkpt>
      <trkpt lat="47.88319" lon="0.55909">
        <ele>153</ele>
        <time>2021-09-17T16:06:04+02:00</time>
      </trkpt>
      <trkpt lat="47.88345" lon="0.5593">
        <ele>153</ele>
        <time>2021-09-17T16:06:09+02:00</time>
      </trkpt>
      <trkpt lat="47.88379" lon="0.55947">
        <ele>153</ele>
        <time>2021-09-17T16:06:14+02:00</time>
      </trkpt>
      <trkpt lat="47.88462" lon="0.55951">
        <ele>155</ele>
        <time>2021-09-17T16:06:19+02:00</time>
      </trkpt>
      <trkpt lat="47.88534" lon="0.55951">
        <ele>156</ele>
        <time>2021-09-17T16:06:24+02:00</time>
      </trkpt>
      <trkpt lat="47.88572" lon="0.55965">
        <ele>156</ele>
        <time>2021-09-17T16:06:29+02:00</time>
      </trkpt>
      <trkpt lat="47.88601" lon="0.55984">
        <ele>156</ele>
        <time>2021-09-17T16:06:34+02:00</time>
      </trkpt>
      <trkpt lat="47.88629" lon="0.56003">
        <ele>158</ele>
        <time>2021-09-17T16:06:39+02:00</time>
      </trkpt>
      <trkpt lat="47.88653" lon="0.56015">
        <ele>159</ele>
        <time>2021-09-17T16:06:44+02:00</time>
      </trkpt>
      <trkpt lat="47.88724" lon="0.56033">
        <ele>160</ele>
        <time>2021-09-17T16:06:49+02:00</time>
      </trkpt>
      <trkpt lat="47.88639" lon="0.56096">
        <ele>159</ele>
        <time>2021-09-17T16:06:54+02:00</time>
      </trkpt>
      <trkpt lat="47.88687" lon="0.56363">
        <ele>160</ele>
        <time>2021-09-17T16:06:59+02:00</time>
      </trkpt>
      <trkpt lat="47.88698" lon="0.56385">
        <ele>160</ele>
        <time>2021-09-17T16:07:04+02:00</time>
      </trkpt>
      <trkpt lat="47.88699" lon="0.56405">
        <ele>160</ele>
        <time>2021-09-17T16:07:09+02:00</time>
      </trkpt>
      <trkpt lat="47.88694" lon="0.56555">
        <ele>160</ele>
        <time>2021-09-17T16:07:14+02:00</time>
      </trkpt>
      <trkpt lat="47.88702" lon="0.56679">
        <ele>159</ele>
        <time>2021-09-17T16:07:19+02:00</time>
      </trkpt>
      <trkpt lat="47.887" lon="0.56763">
        <ele>157</ele>
        <time>2021-09-17T16:07:24+02:00</time>
      </trkpt>
      <trkpt lat="47.88697" lon="0.56803">
        <ele>157</ele>
        <time>2021-09-17T16:07:29+02:00</time>
      </trkpt>
      <trkpt lat="47.88694" lon="0.5683">
        <ele>156</ele>
        <time>2021-09-17T16:07:34+02:00</time>
      </trkpt>
      <trkpt lat="47.88698" lon="0.5689">
        <ele>156</ele>
        <time>2021-09-17T16:07:39+02:00</time>
      </trkpt>
      <trkpt lat="47.8871" lon="0.56981">
        <ele>154</ele>
        <time>2021-09-17T16:07:44+02:00</time>
      </trkpt>
      <trkpt lat="47.88718" lon="0.57028">
        <ele>154</ele>
        <time>2021-09-17T16:07:49+02:00</time>
      </trkpt>
      <trkpt lat="47.88729" lon="0.57051">
        <ele>155</ele>
        <time>2021-09-17T16:07:54+02:00</time>
      </trkpt>
      <trkpt lat="47.88766" lon="0.57161">
        <ele>155</ele>
        <time>2021-09-17T16:07:59+02:00</time>
      </trkpt>
      <trkpt lat="47.8872" lon="0.57202">
        <ele>155</ele>
        <time>2021-09-17T16:08:04+02:00</time>
      </trkpt>
      <trkpt lat="47.88672" lon="0.57238">
        <ele>156</ele>
        <time>2021-09-17T16:08:09+02:00</time>
      </trkpt>
      <trkpt lat="47.88616" lon="0.57273">
        <ele>152</ele>
        <time>2021-09-17T16:08:14+02:00</time>
      </trkpt>
      <trkpt lat="47.88598" lon="0.57301">
        <ele>150</ele>
        <time>2021-09-17T16:08:19+02:00</time>
      </trkpt>
      <trkpt lat="47.88573" lon="0.57373">
        <ele>149</ele>
        <time>2021-09-17T16:08:24+02:00</time>
      </trkpt>
      <trkpt lat="47.88573" lon="0.57373">
        <ele>149</ele>
        <time>2021-09-17T16:08:29+02:00</time>
      </trkpt>
      <trkpt lat="47.88565" lon="0.57398">
        <ele>148</ele>
        <time>2021-09-17T16:08:34+02:00</time>
      </trkpt>
      <trkpt lat="47.88405" lon="0.57306">
        <ele>132</ele>
        <time>2021-09-17T16:08:39+02:00</time>
      </trkpt>
      <trkpt lat="47.88344" lon="0.57247">
        <ele>132</ele>
        <time>2021-09-17T16:08:44+02:00</time>
      </trkpt>
      <trkpt lat="47.88248" lon="0.57211">
        <ele>139</ele>
        <time>2021-09-17T16:08:49+02:00</time>
      </trkpt>
      <trkpt lat="47.88093" lon="0.57161">
        <ele>149</ele>
        <time>2021-09-17T16:08:54+02:00</time>
      </trkpt>
      <trkpt lat="47.87998" lon="0.57161">
        <ele>151</ele>
        <time>2021-09-17T16:08:59+02:00</time>
      </trkpt>
      <trkpt lat="47.87974" lon="0.57159">
        <ele>152</ele>
        <time>2021-09-17T16:09:04+02:00</time>
      </trkpt>
      <trkpt lat="47.87911" lon="0.57091">
        <ele>154</ele>
        <time>2021-09-17T16:09:09+02:00</time>
      </trkpt>
      <trkpt lat="47.87873" lon="0.57053">
        <ele>155</ele>
        <time>2021-09-17T16:09:14+02:00</time>
      </trkpt>
      <trkpt lat="47.87749" lon="0.56875">
        <ele>156</ele>
        <time>2021-09-17T16:09:19+02:00</time>
      </trkpt>
      <trkpt lat="47.87738" lon="0.56895">
        <ele>157</ele>
        <time>2021-09-17T16:09:24+02:00</time>
      </trkpt>
      <trkpt lat="47.87729" lon="0.56921">
        <ele>157</ele>
        <time>2021-09-17T16:09:29+02:00</time>
      </trkpt>
      <trkpt lat="47.87718" lon="0.56981">
        <ele>157</ele>
        <time>2021-09-17T16:09:34+02:00</time>
      </trkpt>
      <trkpt lat="47.87688" lon="0.57076">
        <ele>158</ele>
        <time>2021-09-17T16:09:39+02:00</time>
      </trkpt>
      <trkpt lat="47.87678" lon="0.57098">
        <ele>158</ele>
        <time>2021-09-17T16:09:44+02:00</time>
      </trkpt>
      <trkpt lat="47.87665" lon="0.57116">
        <ele>158</ele>
        <time>2021-09-17T16:09:49+02:00</time>
      </trkpt>
      <trkpt lat="47.87641" lon="0.57153">
        <ele>158</ele>
        <time>2021-09-17T16:09:54+02:00</time>
      </trkpt>
      <trkpt lat="47.87619" lon="0.572">
        <ele>158</ele>
        <time>2021-09-17T16:09:59+02:00</time>
      </trkpt>
      <trkpt lat="47.87524" lon="0.57413">
        <ele>156</ele>
        <time>2021-09-17T16:10:04+02:00</time>
      </trkpt>
      <trkpt lat="47.87458" lon="0.57569">
        <ele>155</ele>
        <time>2021-09-17T16:10:09+02:00</time>
      </trkpt>
      <trkpt lat="47.87464" lon="0.57584">
        <ele>155</ele>
        <time>2021-09-17T16:10:14+02:00</time>
      </trkpt>
      <trkpt lat="47.87469" lon="0.57623">
        <ele>154</ele>
        <time>2021-09-17T16:10:19+02:00</time>
      </trkpt>
      <trkpt lat="47.8748" lon="0.57694">
        <ele>153</ele>
        <time>2021-09-17T16:10:24+02:00</time>
      </trkpt>
      <trkpt lat="47.87479" lon="0.57727">
        <ele>152</ele>
        <time>2021-09-17T16:10:29+02:00</time>
      </trkpt>
      <trkpt lat="47.87487" lon="0.57789">
        <ele>152</ele>
        <time>2021-09-17T16:10:34+02:00</time>
      </trkpt>
      <trkpt lat="47.87491" lon="0.57835">
        <ele>151</ele>
        <time>2021-09-17T16:10:39+02:00</time>
      </trkpt>
      <trkpt lat="47.87492" lon="0.5789">
        <ele>150</ele>
        <time>2021-09-17T16:10:44+02:00</time>
      </trkpt>
      <trkpt lat="47.87503" lon="0.57984">
        <ele>149</ele>
        <time>2021-09-17T16:10:49+02:00</time>
      </trkpt>
      <trkpt lat="47.87517" lon="0.58142">
        <ele>149</ele>
        <time>2021-09-17T16:10:54+02:00</time>
      </trkpt>
      <trkpt lat="47.87521" lon="0.58185">
        <ele>148</ele>
        <time>2021-09-17T16:10:59+02:00</time>
      </trkpt>
      <trkpt lat="47.87532" lon="0.58225">
        <ele>147</ele>
        <time>2021-09-17T16:11:04+02:00</time>
      </trkpt>
      <trkpt lat="47.87524" lon="0.58253">
        <ele>147</ele>
        <time>2021-09-17T16:11:09+02:00</time>
      </trkpt>
      <trkpt lat="47.8752" lon="0.58282">
        <ele>146</ele>
        <time>2021-09-17T16:11:14+02:00</time>
      </trkpt>
      <trkpt lat="47.87532" lon="0.58352">
        <ele>143</ele>
        <time>2021-09-17T16:11:19+02:00</time>
      </trkpt>
      <trkpt lat="47.87528" lon="0.5838">
        <ele>142</ele>
        <time>2021-09-17T16:11:24+02:00</time>
      </trkpt>
      <trkpt lat="47.87517" lon="0.58411">
        <ele>142</ele>
        <time>2021-09-17T16:11:29+02:00</time>
      </trkpt>
      <trkpt lat="47.87499" lon="0.58469">
        <ele>140</ele>
        <time>2021-09-17T16:11:34+02:00</time>
      </trkpt>
      <trkpt lat="47.87458" lon="0.58599">
        <ele>128</ele>
        <time>2021-09-17T16:11:39+02:00</time>
      </trkpt>
      <trkpt lat="47.87445" lon="0.58623">
        <ele>125</ele>
        <time>2021-09-17T16:11:44+02:00</time>
      </trkpt>
      <trkpt lat="47.87423" lon="0.58649">
        <ele>123</ele>
        <time>2021-09-17T16:11:49+02:00</time>
      </trkpt>
      <trkpt lat="47.87404" lon="0.58669">
        <ele>120</ele>
        <time>2021-09-17T16:11:54+02:00</time>
      </trkpt>
      <trkpt lat="47.87387" lon="0.58689">
        <ele>118</ele>
        <time>2021-09-17T16:11:59+02:00</time>
      </trkpt>
      <trkpt lat="47.87386" lon="0.58713">
        <ele>116</ele>
        <time>2021-09-17T16:12:04+02:00</time>
      </trkpt>
      <trkpt lat="47.8739" lon="0.58745">
        <ele>114</ele>
        <time>2021-09-17T16:12:09+02:00</time>
      </trkpt>
      <trkpt lat="47.87393" lon="0.58771">
        <ele>113</ele>
        <time>2021-09-17T16:12:14+02:00</time>
      </trkpt>
      <trkpt lat="47.87394" lon="0.5881">
        <ele>112</ele>
        <time>2021-09-17T16:12:19+02:00</time>
      </trkpt>
      <trkpt lat="47.87363" lon="0.58857">
        <ele>111</ele>
        <time>2021-09-17T16:12:24+02:00</time>
      </trkpt>
      <trkpt lat="47.8739" lon="0.58923">
        <ele>109</ele>
        <time>2021-09-17T16:12:29+02:00</time>
      </trkpt>
      <trkpt lat="47.87377" lon="0.58936">
        <ele>108</ele>
        <time>2021-09-17T16:12:34+02:00</time>
      </trkpt>
      <trkpt lat="47.87361" lon="0.58948">
        <ele>108</ele>
        <time>2021-09-17T16:12:39+02:00</time>
      </trkpt>
      <trkpt lat="47.87332" lon="0.58965">
        <ele>107</ele>
        <time>2021-09-17T16:12:44+02:00</time>
      </trkpt>
      <trkpt lat="47.87316" lon="0.58912">
        <ele>109</ele>
        <time>2021-09-17T16:12:49+02:00</time>
      </trkpt>
      <trkpt lat="47.87305" lon="0.58885">
        <ele>110</ele>
        <time>2021-09-17T16:12:54+02:00</time>
      </trkpt>
      <trkpt lat="47.87294" lon="0.58858">
        <ele>112</ele>
        <time>2021-09-17T16:12:59+02:00</time>
      </trkpt>
      <trkpt lat="47.87276" lon="0.58825">
        <ele>115</ele>
        <time>2021-09-17T16:13:04+02:00</time>
      </trkpt>
      <trkpt lat="47.87243" lon="0.58782">
        <ele>121</ele>
        <time>2021-09-17T16:13:09+02:00</time>
      </trkpt>
      <trkpt lat="47.87209" lon="0.58742">
        <ele>126</ele>
        <time>2021-09-17T16:13:14+02:00</time>
      </trkpt>
      <trkpt lat="47.8714" lon="0.58665">
        <ele>131</ele>
        <time>2021-09-17T16:13:19+02:00</time>
      </trkpt>
      <trkpt lat="47.8708" lon="0.58554">
        <ele>143</ele>
        <time>2021-09-17T16:13:24+02:00</time>
      </trkpt>
      <trkpt lat="47.87048" lon="0.58388">
        <ele>149</ele>
        <time>2021-09-17T16:13:29+02:00</time>
      </trkpt>
      <trkpt lat="47.87009" lon="0.58292">
        <ele>151</ele>
        <time>2021-09-17T16:13:34+02:00</time>
      </trkpt>
      <trkpt lat="47.86931" lon="0.58101">
        <ele>152</ele>
        <time>2021-09-17T16:13:39+02:00</time>
      </trkpt>
      <trkpt lat="47.86898" lon="0.57869">
        <ele>155</ele>
        <time>2021-09-17T16:13:44+02:00</time>
      </trkpt>
      <trkpt lat="47.86878" lon="0.57793">
        <ele>156</ele>
        <time>2021-09-17T16:13:49+02:00</time>
      </trkpt>
      <trkpt lat="47.8683" lon="0.57702">
        <ele>158</ele>
        <time>2021-09-17T16:13:54+02:00</time>
      </trkpt>
      <trkpt lat="47.86814" lon="0.57665">
        <ele>158</ele>
        <time>2021-09-17T16:13:59+02:00</time>
      </trkpt>
      <trkpt lat="47.86805" lon="0.57612">
        <ele>156</ele>
        <time>2021-09-17T16:14:04+02:00</time>
      </trkpt>
      <trkpt lat="47.86794" lon="0.57563">
        <ele>155</ele>
        <time>2021-09-17T16:14:09+02:00</time>
      </trkpt>
      <trkpt lat="47.86784" lon="0.57519">
        <ele>154</ele>
        <time>2021-09-17T16:14:14+02:00</time>
      </trkpt>
      <trkpt lat="47.8678" lon="0.57499">
        <ele>154</ele>
        <time>2021-09-17T16:14:19+02:00</time>
      </trkpt>
      <trkpt lat="47.86778" lon="0.57481">
        <ele>154</ele>
        <time>2021-09-17T16:14:24+02:00</time>
      </trkpt>
      <trkpt lat="47.86775" lon="0.5744">
        <ele>154</ele>
        <time>2021-09-17T16:14:29+02:00</time>
      </trkpt>
      <trkpt lat="47.86778" lon="0.57353">
        <ele>153</ele>
        <time>2021-09-17T16:14:34+02:00</time>
      </trkpt>
      <trkpt lat="47.86789" lon="0.57271">
        <ele>151</ele>
        <time>2021-09-17T16:14:39+02:00</time>
      </trkpt>
      <trkpt lat="47.86794" lon="0.57196">
        <ele>147</ele>
        <time>2021-09-17T16:14:44+02:00</time>
      </trkpt>
      <trkpt lat="47.86797" lon="0.57156">
        <ele>145</ele>
        <time>2021-09-17T16:14:49+02:00</time>
      </trkpt>
      <trkpt lat="47.86797" lon="0.57113">
        <ele>142</ele>
        <time>2021-09-17T16:14:54+02:00</time>
      </trkpt>
      <trkpt lat="47.86809" lon="0.57077">
        <ele>140</ele>
        <time>2021-09-17T16:14:59+02:00</time>
      </trkpt>
      <trkpt lat="47.8681" lon="0.57038">
        <ele>138</ele>
        <time>2021-09-17T16:15:04+02:00</time>
      </trkpt>
      <trkpt lat="47.86776" lon="0.56813">
        <ele>137</ele>
        <time>2021-09-17T16:15:09+02:00</time>
      </trkpt>
      <trkpt lat="47.86763" lon="0.56753">
        <ele>141</ele>
        <time>2021-09-17T16:15:14+02:00</time>
      </trkpt>
      <trkpt lat="47.86757" lon="0.5673">
        <ele>143</ele>
        <time>2021-09-17T16:15:19+02:00</time>
      </trkpt>
      <trkpt lat="47.86745" lon="0.56707">
        <ele>145</ele>
        <time>2021-09-17T16:15:24+02:00</time>
      </trkpt>
      <trkpt lat="47.86736" lon="0.5668">
        <ele>147</ele>
        <time>2021-09-17T16:15:29+02:00</time>
      </trkpt>
      <trkpt lat="47.86729" lon="0.56648">
        <ele>149</ele>
        <time>2021-09-17T16:15:34+02:00</time>
      </trkpt>
      <trkpt lat="47.86714" lon="0.56642">
        <ele>150</ele>
        <time>2021-09-17T16:15:39+02:00</time>
      </trkpt>
      <trkpt lat="47.86715" lon="0.566">
        <ele>151</ele>
        <time>2021-09-17T16:15:44+02:00</time>
      </trkpt>
    </trkseg>
  </trk>
</gpx>